Sunday, November 19, 2017, 3:05 AM GMT
Back to Local

CYQY, Sydney, N. S.

Location: , , Canada Lat: 46.167
Local Time: 3:05 AM GMT ( 3:05 GMT) Lon: -60.05
Time Zone: GMT Elev: 183 ft

Show me the last for .
Show Coded

Time T Td Feel RH Dir Speed Gust Alt SLP Vis Weather Sky Remarks
2017-11-19 02:00 37 32 30 80 280° 12 - 29.70 29.71 15 SCT026 Pressure rising rapidly
2017-11-19 01:00 37 34 29 86 300° 13 - 29.67 29.68 15 BKN028 None
2017-11-19 00:00 41 34 35 75 280° 9 - 29.69 29.70 15 OVC028 None
2017-11-18 23:00 41 34 32 75 280° 10 17 29.66 29.67 15 OVC026 None
2017-11-18 22:00 41 34 32 75 320° 15 21 29.62 29.63 15 OVC022 None
2017-11-18 21:00 41 36 31 80 310° 15 23 29.58 29.59 15 BKN024 None
2017-11-18 20:00 43 36 33 75 310° 17 28 29.55 29.56 15 BKN022 None
2017-11-18 19:00 43 36 32 75 320° 21 29 29.52 29.53 15 SCT026 BKN060 None
2017-11-18 18:00 45 34 34 65 310° 22 32 29.51 29.52 15 BKN026 BKN061 Pressure rising rapidly
2017-11-18 17:00 45 36 35 70 300° 20 31 29.47 29.48 15 BKN025 BKN060 None
2017-11-18 16:00 43 36 31 75 280° 25 36 29.45 29.46 15 BKN024 None
2017-11-18 15:00 43 36 31 75 280° 22 38 29.45 29.46 15 SCT018 BKN058 None
2017-11-18 14:00 41 36 29 80 270° 23 35 29.44 29.45 15 SCT020 BKN062 None
2017-11-18 13:00 39 36 28 86 270° 20 28 29.43 29.44 15 SCT014 BKN053 None
2017-11-18 12:00 37 34 26 86 260° 15 23 29.41 29.42 15 SCT060 BKN067 None
2017-11-18 11:00 37 34 25 86 270° 17 28 29.38 29.39 15 FEW016 FEW062 BKN130 None
2017-11-18 10:00 37 34 27 86 260° 15 21 29.37 29.38 15 FEW015 SCT090 BKN120 None
2017-11-18 09:37 37 34 26 86 260° 14 23 29.37 29.38 15 SCT014 BKN089 BKN120 None
2017-11-18 09:00 37 34 25 86 250° 20 29 29.35 29.36 15 FEW018 SCT070 None
2017-11-18 08:00 37 34 26 86 250° 24 - 29.32 29.33 15 SCT016 BKN077 None
2017-11-18 07:00 37 34 25 86 260° 24 32 29.32 29.32 15 SCT016 BKN071 None
2017-11-18 06:00 37 34 26 86 240° 17 24 29.32 29.33 15 SCT018 OVC072 None
2017-11-18 05:00 37 34 26 86 240° 18 26 29.31 29.32 15 FEW024 BKN082 None
2017-11-18 04:00 37 34 27 86 230° 13 21 29.31 29.31 15 SCT024 None

Support USWX by starting your Amazon purchase here.